sensor_id;sensor_type;location;lat;lon;timestamp;P1;durP1;ratioP1;P2;durP2;ratioP2
74269;SDS011;62754;48.252;11.654;2023-11-21T00:00:12;3.25;;;1.15;;
74269;SDS011;62754;48.252;11.654;2023-11-21T00:02:40;6.93;;;1.10;;
74269;SDS011;62754;48.252;11.654;2023-11-21T00:07:36;6.68;;;1.20;;
74269;SDS011;62754;48.252;11.654;2023-11-21T00:10:03;3.25;;;0.88;;
74269;SDS011;62754;48.252;11.654;2023-11-21T00:12:35;6.90;;;1.25;;
74269;SDS011;62754;48.252;11.654;2023-11-21T00:15:02;3.38;;;0.80;;
74269;SDS011;62754;48.252;11.654;2023-11-21T00:17:30;6.60;;;1.27;;
74269;SDS011;62754;48.252;11.654;2023-11-21T00:19:56;5.30;;;1.02;;
74269;SDS011;62754;48.252;11.654;2023-11-21T00:22:22;5.55;;;1.50;;
74269;SDS011;62754;48.252;11.654;2023-11-21T00:24:48;4.47;;;0.73;;
74269;SDS011;62754;48.252;11.654;2023-11-21T00:27:13;3.30;;;0.70;;
74269;SDS011;62754;48.252;11.654;2023-11-21T00:29:39;3.08;;;0.90;;
74269;SDS011;62754;48.252;11.654;2023-11-21T00:32:05;3.63;;;0.75;;
74269;SDS011;62754;48.252;11.654;2023-11-21T00:34:32;4.70;;;1.30;;
74269;SDS011;62754;48.252;11.654;2023-11-21T00:36:58;4.93;;;0.77;;
74269;SDS011;62754;48.252;11.654;2023-11-21T00:39:24;3.58;;;0.98;;
74269;SDS011;62754;48.252;11.654;2023-11-21T00:41:51;3.03;;;0.82;;
74269;SDS011;62754;48.252;11.654;2023-11-21T00:44:18;4.38;;;0.70;;
74269;SDS011;62754;48.252;11.654;2023-11-21T00:46:44;3.42;;;0.70;;
74269;SDS011;62754;48.252;11.654;2023-11-21T00:49:10;3.90;;;0.68;;
74269;SDS011;62754;48.252;11.654;2023-11-21T00:51:36;2.38;;;0.30;;
74269;SDS011;62754;48.252;11.654;2023-11-21T00:54:02;2.50;;;0.52;;
74269;SDS011;62754;48.252;11.654;2023-11-21T00:56:28;1.77;;;0.60;;
74269;SDS011;62754;48.252;11.654;2023-11-21T00:58:53;1.05;;;0.40;;
74269;SDS011;62754;48.252;11.654;2023-11-21T01:01:20;2.72;;;0.57;;
74269;SDS011;62754;48.252;11.654;2023-11-21T01:03:48;1.50;;;0.50;;
74269;SDS011;62754;48.252;11.654;2023-11-21T01:06:14;2.92;;;0.50;;
74269;SDS011;62754;48.252;11.654;2023-11-21T01:08:40;3.83;;;0.40;;
74269;SDS011;62754;48.252;11.654;2023-11-21T01:11:06;1.70;;;0.40;;
74269;SDS011;62754;48.252;11.654;2023-11-21T01:13:37;1.85;;;0.30;;
74269;SDS011;62754;48.252;11.654;2023-11-21T01:16:06;3.17;;;0.82;;
74269;SDS011;62754;48.252;11.654;2023-11-21T01:18:32;1.63;;;0.30;;
74269;SDS011;62754;48.252;11.654;2023-11-21T01:20:58;1.65;;;0.40;;
74269;SDS011;62754;48.252;11.654;2023-11-21T01:23:25;2.05;;;0.50;;
74269;SDS011;62754;48.252;11.654;2023-11-21T01:25:52;3.20;;;0.50;;
74269;SDS011;62754;48.252;11.654;2023-11-21T01:28:18;3.35;;;0.40;;
74269;SDS011;62754;48.252;11.654;2023-11-21T01:30:44;5.20;;;0.60;;
74269;SDS011;62754;48.252;11.654;2023-11-21T01:33:11;2.03;;;0.50;;
74269;SDS011;62754;48.252;11.654;2023-11-21T01:35:36;1.40;;;0.30;;
74269;SDS011;62754;48.252;11.654;2023-11-21T01:38:02;3.67;;;0.57;;
74269;SDS011;62754;48.252;11.654;2023-11-21T01:40:33;0.98;;;0.28;;
74269;SDS011;62754;48.252;11.654;2023-11-21T01:42:59;2.55;;;0.60;;
74269;SDS011;62754;48.252;11.654;2023-11-21T01:45:28;2.22;;;0.73;;
74269;SDS011;62754;48.252;11.654;2023-11-21T01:47:56;1.10;;;0.40;;
74269;SDS011;62754;48.252;11.654;2023-11-21T01:50:23;1.55;;;0.30;;
74269;SDS011;62754;48.252;11.654;2023-11-21T01:52:50;2.70;;;0.45;;
74269;SDS011;62754;48.252;11.654;2023-11-21T01:55:17;3.75;;;0.65;;
74269;SDS011;62754;48.252;11.654;2023-11-21T01:57:44;3.65;;;0.82;;
74269;SDS011;62754;48.252;11.654;2023-11-21T02:00:11;2.08;;;0.73;;
74269;SDS011;62754;48.252;11.654;2023-11-21T02:02:44;2.85;;;0.90;;
74269;SDS011;62754;48.252;11.654;2023-11-21T02:05:11;1.60;;;0.88;;
74269;SDS011;62754;48.252;11.654;2023-11-21T02:07:41;3.97;;;0.73;;
74269;SDS011;62754;48.252;11.654;2023-11-21T02:10:13;3.72;;;0.63;;
74269;SDS011;62754;48.252;11.654;2023-11-21T02:12:40;1.45;;;0.80;;
74269;SDS011;62754;48.252;11.654;2023-11-21T02:15:07;1.90;;;0.70;;
74269;SDS011;62754;48.252;11.654;2023-11-21T02:17:42;3.65;;;0.82;;
74269;SDS011;62754;48.252;11.654;2023-11-21T02:20:18;5.13;;;1.52;;
74269;SDS011;62754;48.252;11.654;2023-11-21T02:22:49;3.97;;;0.95;;
74269;SDS011;62754;48.252;11.654;2023-11-21T02:25:25;4.43;;;0.60;;
74269;SDS011;62754;48.252;11.654;2023-11-21T02:27:56;3.47;;;0.55;;
74269;SDS011;62754;48.252;11.654;2023-11-21T02:30:22;3.25;;;0.60;;
74269;SDS011;62754;48.252;11.654;2023-11-21T02:32:50;3.63;;;0.73;;
74269;SDS011;62754;48.252;11.654;2023-11-21T02:35:19;2.00;;;0.70;;
74269;SDS011;62754;48.252;11.654;2023-11-21T02:37:48;5.80;;;1.40;;
74269;SDS011;62754;48.252;11.654;2023-11-21T02:40:14;3.35;;;0.85;;
74269;SDS011;62754;48.252;11.654;2023-11-21T02:42:48;3.40;;;0.65;;
74269;SDS011;62754;48.252;11.654;2023-11-21T02:45:16;4.53;;;0.50;;
74269;SDS011;62754;48.252;11.654;2023-11-21T02:47:43;5.85;;;0.68;;
74269;SDS011;62754;48.252;11.654;2023-11-21T02:50:10;3.22;;;0.50;;
74269;SDS011;62754;48.252;11.654;2023-11-21T02:52:36;2.13;;;0.50;;
74269;SDS011;62754;48.252;11.654;2023-11-21T02:55:02;3.78;;;0.60;;
74269;SDS011;62754;48.252;11.654;2023-11-21T02:57:29;4.18;;;0.60;;
74269;SDS011;62754;48.252;11.654;2023-11-21T02:59:54;1.52;;;0.50;;
74269;SDS011;62754;48.252;11.654;2023-11-21T03:02:21;2.50;;;0.40;;
74269;SDS011;62754;48.252;11.654;2023-11-21T03:04:47;2.45;;;0.40;;
74269;SDS011;62754;48.252;11.654;2023-11-21T03:07:14;2.40;;;0.70;;
74269;SDS011;62754;48.252;11.654;2023-11-21T03:09:40;2.92;;;0.60;;
74269;SDS011;62754;48.252;11.654;2023-11-21T03:12:06;1.42;;;0.40;;
74269;SDS011;62754;48.252;11.654;2023-11-21T03:14:32;1.63;;;0.50;;
74269;SDS011;62754;48.252;11.654;2023-11-21T03:16:58;2.20;;;0.50;;
74269;SDS011;62754;48.252;11.654;2023-11-21T03:19:24;3.35;;;0.70;;
74269;SDS011;62754;48.252;11.654;2023-11-21T03:21:50;4.07;;;0.70;;
74269;SDS011;62754;48.252;11.654;2023-11-21T03:24:18;2.03;;;0.40;;
74269;SDS011;62754;48.252;11.654;2023-11-21T03:26:45;2.00;;;0.60;;
74269;SDS011;62754;48.252;11.654;2023-11-21T03:29:15;3.85;;;0.60;;
74269;SDS011;62754;48.252;11.654;2023-11-21T03:31:41;2.95;;;0.50;;
74269;SDS011;62754;48.252;11.654;2023-11-21T03:34:10;4.10;;;0.77;;
74269;SDS011;62754;48.252;11.654;2023-11-21T03:36:40;1.98;;;0.50;;
74269;SDS011;62754;48.252;11.654;2023-11-21T03:39:06;4.03;;;0.70;;
74269;SDS011;62754;48.252;11.654;2023-11-21T03:41:32;2.75;;;0.50;;
74269;SDS011;62754;48.252;11.654;2023-11-21T03:43:59;4.82;;;0.65;;
74269;SDS011;62754;48.252;11.654;2023-11-21T03:46:25;2.63;;;0.50;;
74269;SDS011;62754;48.252;11.654;2023-11-21T03:48:51;1.98;;;0.50;;
74269;SDS011;62754;48.252;11.654;2023-11-21T03:51:16;2.30;;;0.68;;
74269;SDS011;62754;48.252;11.654;2023-11-21T03:53:42;2.78;;;0.93;;
74269;SDS011;62754;48.252;11.654;2023-11-21T03:56:08;4.22;;;0.50;;
74269;SDS011;62754;48.252;11.654;2023-11-21T03:58:34;3.72;;;0.73;;
74269;SDS011;62754;48.252;11.654;2023-11-21T04:01:00;3.08;;;0.70;;
74269;SDS011;62754;48.252;11.654;2023-11-21T04:03:26;3.42;;;0.60;;
74269;SDS011;62754;48.252;11.654;2023-11-21T04:05:52;5.68;;;0.68;;
74269;SDS011;62754;48.252;11.654;2023-11-21T04:08:18;3.92;;;0.65;;
74269;SDS011;62754;48.252;11.654;2023-11-21T04:10:44;1.63;;;0.50;;
74269;SDS011;62754;48.252;11.654;2023-11-21T04:13:10;1.23;;;0.50;;
74269;SDS011;62754;48.252;11.654;2023-11-21T04:15:35;2.50;;;0.57;;
74269;SDS011;62754;48.252;11.654;2023-11-21T04:18:01;2.53;;;0.60;;
74269;SDS011;62754;48.252;11.654;2023-11-21T04:20:28;3.40;;;0.60;;
74269;SDS011;62754;48.252;11.654;2023-11-21T04:22:53;4.03;;;0.70;;
74269;SDS011;62754;48.252;11.654;2023-11-21T04:25:19;3.22;;;0.75;;
74269;SDS011;62754;48.252;11.654;2023-11-21T04:27:45;3.80;;;0.75;;
74269;SDS011;62754;48.252;11.654;2023-11-21T04:30:12;2.47;;;0.57;;
74269;SDS011;62754;48.252;11.654;2023-11-21T04:32:38;2.88;;;0.70;;
74269;SDS011;62754;48.252;11.654;2023-11-21T04:35:04;1.92;;;0.90;;
74269;SDS011;62754;48.252;11.654;2023-11-21T04:37:30;1.67;;;0.60;;
74269;SDS011;62754;48.252;11.654;2023-11-21T04:39:56;3.60;;;0.85;;
74269;SDS011;62754;48.252;11.654;2023-11-21T04:42:22;5.20;;;0.93;;
74269;SDS011;62754;48.252;11.654;2023-11-21T04:44:48;4.20;;;0.82;;
74269;SDS011;62754;48.252;11.654;2023-11-21T04:47:15;4.40;;;0.90;;
74269;SDS011;62754;48.252;11.654;2023-11-21T04:49:43;4.03;;;0.80;;
74269;SDS011;62754;48.252;11.654;2023-11-21T04:52:14;3.67;;;0.77;;
74269;SDS011;62754;48.252;11.654;2023-11-21T04:54:40;3.30;;;0.70;;
74269;SDS011;62754;48.252;11.654;2023-11-21T04:57:06;3.50;;;0.70;;
74269;SDS011;62754;48.252;11.654;2023-11-21T04:59:32;2.78;;;0.60;;
74269;SDS011;62754;48.252;11.654;2023-11-21T05:01:59;2.10;;;1.00;;
74269;SDS011;62754;48.252;11.654;2023-11-21T05:04:25;5.28;;;0.73;;
74269;SDS011;62754;48.252;11.654;2023-11-21T05:06:52;3.90;;;0.70;;
74269;SDS011;62754;48.252;11.654;2023-11-21T05:09:17;2.83;;;0.50;;
74269;SDS011;62754;48.252;11.654;2023-11-21T05:11:43;2.35;;;0.45;;
74269;SDS011;62754;48.252;11.654;2023-11-21T05:14:09;2.58;;;0.57;;
74269;SDS011;62754;48.252;11.654;2023-11-21T05:16:35;3.30;;;0.68;;
74269;SDS011;62754;48.252;11.654;2023-11-21T05:19:01;2.72;;;0.60;;
74269;SDS011;62754;48.252;11.654;2023-11-21T05:23:57;1.95;;;0.80;;
74269;SDS011;62754;48.252;11.654;2023-11-21T05:26:23;1.52;;;0.40;;
74269;SDS011;62754;48.252;11.654;2023-11-21T05:28:48;1.17;;;0.57;;
74269;SDS011;62754;48.252;11.654;2023-11-21T05:31:15;2.65;;;0.70;;
74269;SDS011;62754;48.252;11.654;2023-11-21T05:33:41;2.25;;;0.50;;
74269;SDS011;62754;48.252;11.654;2023-11-21T05:36:07;3.20;;;0.68;;
74269;SDS011;62754;48.252;11.654;2023-11-21T05:38:35;2.15;;;0.68;;
74269;SDS011;62754;48.252;11.654;2023-11-21T05:41:01;1.67;;;0.40;;
74269;SDS011;62754;48.252;11.654;2023-11-21T05:43:28;2.13;;;0.60;;
74269;SDS011;62754;48.252;11.654;2023-11-21T05:45:55;3.08;;;0.55;;
74269;SDS011;62754;48.252;11.654;2023-11-21T05:48:21;1.95;;;0.40;;
74269;SDS011;62754;48.252;11.654;2023-11-21T05:50:48;2.22;;;0.52;;
74269;SDS011;62754;48.252;11.654;2023-11-21T05:53:14;1.58;;;0.45;;
74269;SDS011;62754;48.252;11.654;2023-11-21T05:55:41;2.65;;;0.70;;
74269;SDS011;62754;48.252;11.654;2023-11-21T05:58:07;2.55;;;0.40;;
74269;SDS011;62754;48.252;11.654;2023-11-21T06:00:33;1.35;;;0.52;;
74269;SDS011;62754;48.252;11.654;2023-11-21T06:03:00;2.10;;;0.50;;
74269;SDS011;62754;48.252;11.654;2023-11-21T06:05:26;1.52;;;0.55;;
74269;SDS011;62754;48.252;11.654;2023-11-21T06:07:53;1.77;;;0.68;;
74269;SDS011;62754;48.252;11.654;2023-11-21T06:10:21;3.25;;;0.38;;
74269;SDS011;62754;48.252;11.654;2023-11-21T06:12:48;0.98;;;0.32;;
74269;SDS011;62754;48.252;11.654;2023-11-21T06:15:14;1.48;;;0.40;;
74269;SDS011;62754;48.252;11.654;2023-11-21T06:17:44;2.35;;;0.50;;
74269;SDS011;62754;48.252;11.654;2023-11-21T06:20:14;1.25;;;0.40;;
74269;SDS011;62754;48.252;11.654;2023-11-21T06:22:43;3.00;;;0.50;;
74269;SDS011;62754;48.252;11.654;2023-11-21T06:25:10;1.15;;;0.30;;
74269;SDS011;62754;48.252;11.654;2023-11-21T06:27:38;2.78;;;0.50;;
74269;SDS011;62754;48.252;11.654;2023-11-21T06:30:04;1.95;;;0.55;;
74269;SDS011;62754;48.252;11.654;2023-11-21T06:32:31;2.13;;;0.40;;
74269;SDS011;62754;48.252;11.654;2023-11-21T06:34:58;2.40;;;0.40;;
74269;SDS011;62754;48.252;11.654;2023-11-21T06:37:25;2.47;;;0.50;;
74269;SDS011;62754;48.252;11.654;2023-11-21T06:39:52;1.90;;;0.43;;
74269;SDS011;62754;48.252;11.654;2023-11-21T06:42:18;4.13;;;0.68;;
74269;SDS011;62754;48.252;11.654;2023-11-21T06:44:45;2.63;;;0.43;;
74269;SDS011;62754;48.252;11.654;2023-11-21T06:47:11;0.70;;;0.40;;
74269;SDS011;62754;48.252;11.654;2023-11-21T06:49:37;1.80;;;0.50;;
74269;SDS011;62754;48.252;11.654;2023-11-21T06:52:03;1.23;;;0.30;;
74269;SDS011;62754;48.252;11.654;2023-11-21T06:54:32;2.03;;;0.50;;
74269;SDS011;62754;48.252;11.654;2023-11-21T06:56:58;3.00;;;0.40;;
74269;SDS011;62754;48.252;11.654;2023-11-21T06:59:24;1.27;;;0.40;;
74269;SDS011;62754;48.252;11.654;2023-11-21T07:01:50;3.35;;;0.70;;
74269;SDS011;62754;48.252;11.654;2023-11-21T07:04:16;1.38;;;0.38;;
74269;SDS011;62754;48.252;11.654;2023-11-21T07:09:09;1.83;;;0.40;;
74269;SDS011;62754;48.252;11.654;2023-11-21T07:11:36;1.38;;;0.43;;
74269;SDS011;62754;48.252;11.654;2023-11-21T07:14:03;3.08;;;0.45;;
74269;SDS011;62754;48.252;11.654;2023-11-21T07:16:35;1.45;;;0.40;;
74269;SDS011;62754;48.252;11.654;2023-11-21T07:19:04;1.05;;;0.30;;
74269;SDS011;62754;48.252;11.654;2023-11-21T07:21:34;2.47;;;0.30;;
74269;SDS011;62754;48.252;11.654;2023-11-21T07:26:27;0.80;;;0.30;;
74269;SDS011;62754;48.252;11.654;2023-11-21T07:28:53;0.80;;;0.35;;
74269;SDS011;62754;48.252;11.654;2023-11-21T07:31:20;2.10;;;0.45;;
74269;SDS011;62754;48.252;11.654;2023-11-21T07:33:49;2.92;;;0.40;;
74269;SDS011;62754;48.252;11.654;2023-11-21T07:36:16;2.28;;;0.40;;
74269;SDS011;62754;48.252;11.654;2023-11-21T07:38:48;1.88;;;0.47;;
74269;SDS011;62754;48.252;11.654;2023-11-21T07:41:17;1.15;;;0.30;;
74269;SDS011;62754;48.252;11.654;2023-11-21T07:43:46;1.13;;;0.40;;
74269;SDS011;62754;48.252;11.654;2023-11-21T07:46:12;1.05;;;0.45;;
74269;SDS011;62754;48.252;11.654;2023-11-21T07:48:39;1.20;;;0.70;;
74269;SDS011;62754;48.252;11.654;2023-11-21T07:51:07;2.75;;;0.50;;
74269;SDS011;62754;48.252;11.654;2023-11-21T07:53:33;1.23;;;0.40;;
74269;SDS011;62754;48.252;11.654;2023-11-21T07:56:03;0.50;;;0.28;;
74269;SDS011;62754;48.252;11.654;2023-11-21T07:58:30;2.13;;;0.43;;
74269;SDS011;62754;48.252;11.654;2023-11-21T08:00:58;0.90;;;0.30;;
74269;SDS011;62754;48.252;11.654;2023-11-21T08:03:24;1.20;;;0.30;;
74269;SDS011;62754;48.252;11.654;2023-11-21T08:05:51;0.65;;;0.20;;
74269;SDS011;62754;48.252;11.654;2023-11-21T08:08:17;1.10;;;0.40;;
74269;SDS011;62754;48.252;11.654;2023-11-21T08:10:44;1.80;;;0.45;;
74269;SDS011;62754;48.252;11.654;2023-11-21T08:13:13;1.45;;;0.57;;
74269;SDS011;62754;48.252;11.654;2023-11-21T08:15:40;1.35;;;0.40;;
74269;SDS011;62754;48.252;11.654;2023-11-21T08:18:11;1.05;;;0.30;;
74269;SDS011;62754;48.252;11.654;2023-11-21T08:20:37;1.20;;;0.40;;
74269;SDS011;62754;48.252;11.654;2023-11-21T08:23:05;1.20;;;0.40;;
74269;SDS011;62754;48.252;11.654;2023-11-21T08:25:31;0.73;;;0.30;;
74269;SDS011;62754;48.252;11.654;2023-11-21T08:28:00;5.20;;;0.60;;
74269;SDS011;62754;48.252;11.654;2023-11-21T08:30:26;2.00;;;0.40;;
74269;SDS011;62754;48.252;11.654;2023-11-21T08:32:55;2.78;;;0.50;;
74269;SDS011;62754;48.252;11.654;2023-11-21T08:35:23;2.05;;;0.30;;
74269;SDS011;62754;48.252;11.654;2023-11-21T08:37:52;0.85;;;0.30;;
74269;SDS011;62754;48.252;11.654;2023-11-21T08:40:18;1.17;;;0.40;;
74269;SDS011;62754;48.252;11.654;2023-11-21T08:42:46;1.38;;;0.30;;
74269;SDS011;62754;48.252;11.654;2023-11-21T08:45:11;1.60;;;0.40;;
74269;SDS011;62754;48.252;11.654;2023-11-21T08:47:38;1.45;;;0.45;;
74269;SDS011;62754;48.252;11.654;2023-11-21T08:52:32;2.10;;;0.43;;
74269;SDS011;62754;48.252;11.654;2023-11-21T08:55:02;1.33;;;0.30;;
74269;SDS011;62754;48.252;11.654;2023-11-21T08:57:33;2.20;;;0.55;;
74269;SDS011;62754;48.252;11.654;2023-11-21T09:00:01;2.05;;;0.50;;
74269;SDS011;62754;48.252;11.654;2023-11-21T09:02:27;0.57;;;0.25;;
74269;SDS011;62754;48.252;11.654;2023-11-21T09:04:53;2.05;;;0.30;;
74269;SDS011;62754;48.252;11.654;2023-11-21T09:07:19;1.42;;;0.63;;
74269;SDS011;62754;48.252;11.654;2023-11-21T09:09:48;2.30;;;0.47;;
74269;SDS011;62754;48.252;11.654;2023-11-21T09:12:14;1.50;;;0.30;;
74269;SDS011;62754;48.252;11.654;2023-11-21T09:14:40;1.77;;;0.47;;
74269;SDS011;62754;48.252;11.654;2023-11-21T09:17:07;1.20;;;0.40;;
74269;SDS011;62754;48.252;11.654;2023-11-21T09:19:37;1.65;;;0.40;;
74269;SDS011;62754;48.252;11.654;2023-11-21T09:22:03;1.90;;;0.30;;
74269;SDS011;62754;48.252;11.654;2023-11-21T09:24:33;2.58;;;0.40;;
74269;SDS011;62754;48.252;11.654;2023-11-21T09:31:54;0.95;;;0.35;;
74269;SDS011;62754;48.252;11.654;2023-11-21T09:34:22;1.98;;;0.68;;
74269;SDS011;62754;48.252;11.654;2023-11-21T09:36:48;2.90;;;0.60;;
74269;SDS011;62754;48.252;11.654;2023-11-21T09:39:14;1.55;;;0.50;;
74269;SDS011;62754;48.252;11.654;2023-11-21T09:41:43;1.25;;;0.60;;
74269;SDS011;62754;48.252;11.654;2023-11-21T09:44:16;1.73;;;0.50;;
74269;SDS011;62754;48.252;11.654;2023-11-21T09:46:47;1.38;;;0.40;;
74269;SDS011;62754;48.252;11.654;2023-11-21T09:49:20;1.25;;;0.40;;
74269;SDS011;62754;48.252;11.654;2023-11-21T09:51:50;1.35;;;0.50;;
74269;SDS011;62754;48.252;11.654;2023-11-21T09:54:21;1.00;;;0.40;;
74269;SDS011;62754;48.252;11.654;2023-11-21T09:56:47;2.72;;;0.40;;
74269;SDS011;62754;48.252;11.654;2023-11-21T09:59:15;1.40;;;0.52;;
74269;SDS011;62754;48.252;11.654;2023-11-21T10:01:41;1.38;;;0.60;;
74269;SDS011;62754;48.252;11.654;2023-11-21T10:04:08;1.45;;;0.50;;
74269;SDS011;62754;48.252;11.654;2023-11-21T10:06:40;2.38;;;0.60;;
74269;SDS011;62754;48.252;11.654;2023-11-21T10:09:10;1.65;;;0.63;;
74269;SDS011;62754;48.252;11.654;2023-11-21T10:11:38;3.35;;;0.55;;
74269;SDS011;62754;48.252;11.654;2023-11-21T10:14:06;1.75;;;0.43;;
74269;SDS011;62754;48.252;11.654;2023-11-21T10:16:36;1.33;;;0.52;;
74269;SDS011;62754;48.252;11.654;2023-11-21T10:19:04;1.90;;;0.50;;
74269;SDS011;62754;48.252;11.654;2023-11-21T10:21:33;1.90;;;0.65;;
74269;SDS011;62754;48.252;11.654;2023-11-21T10:23:59;3.05;;;0.57;;
74269;SDS011;62754;48.252;11.654;2023-11-21T10:26:26;1.95;;;0.50;;
74269;SDS011;62754;48.252;11.654;2023-11-21T10:28:59;2.30;;;0.30;;
74269;SDS011;62754;48.252;11.654;2023-11-21T10:31:28;1.25;;;0.50;;
74269;SDS011;62754;48.252;11.654;2023-11-21T10:34:10;3.22;;;0.60;;
74269;SDS011;62754;48.252;11.654;2023-11-21T10:36:40;1.55;;;0.40;;
74269;SDS011;62754;48.252;11.654;2023-11-21T10:39:06;2.70;;;0.70;;
74269;SDS011;62754;48.252;11.654;2023-11-21T10:41:32;2.00;;;0.50;;
74269;SDS011;62754;48.252;11.654;2023-11-21T10:44:00;1.83;;;0.43;;
74269;SDS011;62754;48.252;11.654;2023-11-21T10:46:29;1.98;;;0.50;;
74269;SDS011;62754;48.252;11.654;2023-11-21T10:48:55;3.78;;;0.65;;
74269;SDS011;62754;48.252;11.654;2023-11-21T10:51:22;1.67;;;0.57;;
74269;SDS011;62754;48.252;11.654;2023-11-21T10:53:49;1.33;;;0.50;;
74269;SDS011;62754;48.252;11.654;2023-11-21T10:56:17;1.40;;;0.60;;
74269;SDS011;62754;48.252;11.654;2023-11-21T10:58:46;1.80;;;0.50;;
74269;SDS011;62754;48.252;11.654;2023-11-21T11:01:14;2.00;;;0.50;;
74269;SDS011;62754;48.252;11.654;2023-11-21T11:03:43;1.48;;;0.50;;
74269;SDS011;62754;48.252;11.654;2023-11-21T11:06:10;3.67;;;0.50;;
74269;SDS011;62754;48.252;11.654;2023-11-21T11:08:37;2.42;;;0.50;;
74269;SDS011;62754;48.252;11.654;2023-11-21T11:11:04;1.77;;;0.55;;
74269;SDS011;62754;48.252;11.654;2023-11-21T11:13:31;0.80;;;0.30;;
74269;SDS011;62754;48.252;11.654;2023-11-21T11:16:00;2.80;;;0.40;;
74269;SDS011;62754;48.252;11.654;2023-11-21T11:18:30;2.22;;;0.60;;
74269;SDS011;62754;48.252;11.654;2023-11-21T11:26:46;1.60;;;0.68;;
74269;SDS011;62754;48.252;11.654;2023-11-21T11:32:02;2.15;;;0.63;;
74269;SDS011;62754;48.252;11.654;2023-11-21T11:34:36;2.40;;;0.70;;
74269;SDS011;62754;48.252;11.654;2023-11-21T11:37:15;3.63;;;0.60;;
74269;SDS011;62754;48.252;11.654;2023-11-21T11:39:41;3.85;;;0.60;;
74269;SDS011;62754;48.252;11.654;2023-11-21T11:42:11;2.22;;;0.73;;
74269;SDS011;62754;48.252;11.654;2023-11-21T11:47:14;1.33;;;0.52;;
74269;SDS011;62754;48.252;11.654;2023-11-21T11:55:13;2.15;;;0.55;;
74269;SDS011;62754;48.252;11.654;2023-11-21T11:57:41;3.53;;;0.50;;
74269;SDS011;62754;48.252;11.654;2023-11-21T12:00:15;1.77;;;0.50;;
74269;SDS011;62754;48.252;11.654;2023-11-21T12:02:47;1.65;;;0.40;;
74269;SDS011;62754;48.252;11.654;2023-11-21T12:05:15;1.58;;;0.60;;
74269;SDS011;62754;48.252;11.654;2023-11-21T12:07:49;2.63;;;0.43;;
74269;SDS011;62754;48.252;11.654;2023-11-21T12:10:20;3.17;;;0.60;;
74269;SDS011;62754;48.252;11.654;2023-11-21T12:12:50;2.00;;;0.60;;
74269;SDS011;62754;48.252;11.654;2023-11-21T12:15:19;2.20;;;0.80;;
74269;SDS011;62754;48.252;11.654;2023-11-21T12:17:46;3.33;;;0.60;;
74269;SDS011;62754;48.252;11.654;2023-11-21T12:20:14;2.35;;;0.80;;
74269;SDS011;62754;48.252;11.654;2023-11-21T12:22:46;2.60;;;0.60;;
74269;SDS011;62754;48.252;11.654;2023-11-21T12:27:46;1.60;;;0.63;;
74269;SDS011;62754;48.252;11.654;2023-11-21T12:30:14;2.03;;;0.55;;
74269;SDS011;62754;48.252;11.654;2023-11-21T12:32:47;1.65;;;0.60;;
74269;SDS011;62754;48.252;11.654;2023-11-21T12:35:18;1.63;;;0.82;;
74269;SDS011;62754;48.252;11.654;2023-11-21T12:37:48;1.55;;;0.60;;
74269;SDS011;62754;48.252;11.654;2023-11-21T12:40:16;2.35;;;0.70;;
74269;SDS011;62754;48.252;11.654;2023-11-21T12:42:43;3.55;;;1.13;;
74269;SDS011;62754;48.252;11.654;2023-11-21T12:48:06;1.58;;;0.60;;
74269;SDS011;62754;48.252;11.654;2023-11-21T12:50:36;2.22;;;0.60;;
74269;SDS011;62754;48.252;11.654;2023-11-21T12:53:07;3.03;;;0.45;;
74269;SDS011;62754;48.252;11.654;2023-11-21T12:55:43;0.88;;;0.30;;
74269;SDS011;62754;48.252;11.654;2023-11-21T12:58:15;1.20;;;0.28;;
74269;SDS011;62754;48.252;11.654;2023-11-21T13:00:44;0.50;;;0.13;;
74269;SDS011;62754;48.252;11.654;2023-11-21T13:03:12;0.63;;;0.28;;
74269;SDS011;62754;48.252;11.654;2023-11-21T13:05:42;0.75;;;0.30;;
74269;SDS011;62754;48.252;11.654;2023-11-21T13:08:16;1.02;;;0.40;;
74269;SDS011;62754;48.252;11.654;2023-11-21T13:10:45;1.02;;;0.30;;
74269;SDS011;62754;48.252;11.654;2023-11-21T13:13:14;1.77;;;0.40;;
74269;SDS011;62754;48.252;11.654;2023-11-21T13:15:49;4.68;;;0.70;;
74269;SDS011;62754;48.252;11.654;2023-11-21T13:18:25;1.40;;;0.45;;
74269;SDS011;62754;48.252;11.654;2023-11-21T13:20:53;2.53;;;0.73;;
74269;SDS011;62754;48.252;11.654;2023-11-21T13:23:20;1.05;;;0.55;;
74269;SDS011;62754;48.252;11.654;2023-11-21T13:25:47;5.25;;;0.63;;
74269;SDS011;62754;48.252;11.654;2023-11-21T13:30:46;1.00;;;0.40;;
74269;SDS011;62754;48.252;11.654;2023-11-21T13:33:13;1.00;;;0.30;;
74269;SDS011;62754;48.252;11.654;2023-11-21T13:35:52;1.63;;;0.20;;
74269;SDS011;62754;48.252;11.654;2023-11-21T13:38:18;3.28;;;0.50;;
74269;SDS011;62754;48.252;11.654;2023-11-21T13:40:55;1.27;;;0.20;;
74269;SDS011;62754;48.252;11.654;2023-11-21T13:43:22;0.93;;;0.30;;
74269;SDS011;62754;48.252;11.654;2023-11-21T13:45:51;1.27;;;0.20;;
74269;SDS011;62754;48.252;11.654;2023-11-21T13:48:26;0.70;;;0.20;;
74269;SDS011;62754;48.252;11.654;2023-11-21T13:53:45;0.50;;;0.30;;
74269;SDS011;62754;48.252;11.654;2023-11-21T13:56:14;1.02;;;0.43;;
74269;SDS011;62754;48.252;11.654;2023-11-21T13:58:44;1.23;;;0.40;;
74269;SDS011;62754;48.252;11.654;2023-11-21T14:01:26;1.80;;;0.70;;
74269;SDS011;62754;48.252;11.654;2023-11-21T14:03:55;3.22;;;0.68;;
74269;SDS011;62754;48.252;11.654;2023-11-21T14:06:38;2.70;;;0.70;;
74269;SDS011;62754;48.252;11.654;2023-11-21T14:09:19;4.63;;;0.65;;
74269;SDS011;62754;48.252;11.654;2023-11-21T14:11:57;1.15;;;0.40;;
74269;SDS011;62754;48.252;11.654;2023-11-21T14:14:26;1.67;;;0.40;;
74269;SDS011;62754;48.252;11.654;2023-11-21T14:16:53;2.13;;;0.40;;
74269;SDS011;62754;48.252;11.654;2023-11-21T14:19:21;1.70;;;0.50;;
74269;SDS011;62754;48.252;11.654;2023-11-21T14:21:51;2.00;;;0.50;;
74269;SDS011;62754;48.252;11.654;2023-11-21T14:24:18;0.77;;;0.40;;
74269;SDS011;62754;48.252;11.654;2023-11-21T14:26:46;1.02;;;0.40;;
74269;SDS011;62754;48.252;11.654;2023-11-21T14:29:13;1.50;;;0.40;;
74269;SDS011;62754;48.252;11.654;2023-11-21T14:31:42;1.25;;;0.45;;
74269;SDS011;62754;48.252;11.654;2023-11-21T14:36:37;1.70;;;0.60;;
74269;SDS011;62754;48.252;11.654;2023-11-21T14:41:34;1.48;;;0.50;;
74269;SDS011;62754;48.252;11.654;2023-11-21T14:46:28;2.25;;;0.98;;
74269;SDS011;62754;48.252;11.654;2023-11-21T14:48:54;2.25;;;0.82;;
74269;SDS011;62754;48.252;11.654;2023-11-21T14:51:53;1.55;;;0.73;;
74269;SDS011;62754;48.252;11.654;2023-11-21T14:54:29;2.00;;;0.88;;
74269;SDS011;62754;48.252;11.654;2023-11-21T14:57:12;1.67;;;0.60;;
74269;SDS011;62754;48.252;11.654;2023-11-21T14:59:47;1.88;;;0.70;;
74269;SDS011;62754;48.252;11.654;2023-11-21T15:02:16;1.85;;;0.80;;
74269;SDS011;62754;48.252;11.654;2023-11-21T15:04:47;1.63;;;0.82;;
74269;SDS011;62754;48.252;11.654;2023-11-21T15:07:16;2.10;;;0.70;;
74269;SDS011;62754;48.252;11.654;2023-11-21T15:09:42;3.45;;;0.93;;
74269;SDS011;62754;48.252;11.654;2023-11-21T15:12:10;2.97;;;1.25;;
74269;SDS011;62754;48.252;11.654;2023-11-21T15:14:43;3.78;;;1.80;;
74269;SDS011;62754;48.252;11.654;2023-11-21T15:17:14;3.70;;;1.55;;
74269;SDS011;62754;48.252;11.654;2023-11-21T15:19:49;3.78;;;1.98;;
74269;SDS011;62754;48.252;11.654;2023-11-21T15:22:15;6.88;;;2.33;;
74269;SDS011;62754;48.252;11.654;2023-11-21T15:24:42;2.92;;;1.80;;
74269;SDS011;62754;48.252;11.654;2023-11-21T15:27:10;3.00;;;1.58;;
74269;SDS011;62754;48.252;11.654;2023-11-21T15:29:37;4.20;;;1.40;;